الصفحة الرئيسية
METAR-TAF:

METAR-TAF

مطار :

مطار كلارك الدولي

Angeles, الفلبين

دائرة عرض: 15-11N, خط طول: 120-33E, ارتفاع: 148 متر

مراقبة الطقس الحالي

تاريخ ووقت الإصدار 34 دقيقة قبل الساعة 18:00UTC
ريح 2 عقدة من الشمال الغربي
درجة الحرارة 28°درجة مئوية
الرطوبة 66%
ضغط 1011 hPa
الرؤية 10 كم أو أكثر
غيوم قليلة على ارتفاع 2000 قدم
غيوم مفككة على ارتفاع 10000 قدم

METAR: RPLC 221800Z 31002KT 9999 FEW020 BKN100 28/21 Q1011 NOSIG RMK A2985

زمن: 02:34 (18:34 UTC)

توقعات

تاريخ ووقت الإصدار 1ساعة و 34 دقيقة قبل الساعة 17:00UTC
التوقعات صالحة من22 الساعة 18 UTC إلى 23 الساعة 24 UTC
ريح 6 عقدة من الشرق
الرؤية 10 كم أو أكثر
غيوم قليلة على ارتفاع 2000 قدم
غيوم مفككة على ارتفاع 30000 قدم
مؤقت
من 22 الساعة 18 UTC إلى 22 الساعة 24 UTC
ريح 8 عقدة من الشمال الغربي
غيوم متفرقة على ارتفاع 2000 قدم
غيوم مفككة على ارتفاع 30000 قدم

TAF: RPLC 221700Z 2218/2324 09006KT 9999 FEW020 BKN300 TX35/2306Z TN26/2222Z TEMPO 2218/2224 32008KT SCT020 BKN300

أرصاد الطقس والتوقعات من أكثر من 4000 مطار (تقارير الطقس للمطار METAR والتنبؤ بالطقس بالمطارTAF).

المحطات المتاحة هي النقط الصفراء والحمراء على الخريطة.

حرك المؤشر فوق النقطة لمعرفة اسم المحطة.

ثم انقر لمعرفة أرصاد وتوقعات الطقس.

لتغيير الخارطة: اضغط على الأزرار الخضراء مع رمز الصليب الأسود للتكبير. على الزر الأخضر مع شرطة للتصغير، أو على الأسهم الخضراء للخرائط المجاورة.


METAR-TAF: